Time;durP1;ratioP1;P1;durP2;ratioP2;P2;SDS_P1;SDS_P2;PMS_P1;PMS_P2;Temp;Humidity;BMP_temperature;BMP_pressure;BME280_temperature;BME280_humidity;BME280_pressure;Samples;Min_cycle;Max_cycle;Signal;HPM_P1;HPM_P2
2022/06/12 00:03:25;;;;;;;8.97;6.80;;;;;;;17.35;100.00;94476.28;4977223;28;20693;-87
2022/06/12 00:06:01;;;;;;;8.00;7.20;;;;;;;17.30;100.00;94469.19;4994527;28;20330;-88
2022/06/12 00:08:38;;;;;;;11.67;6.87;;;;;;;17.38;100.00;94475.75;4991807;28;20207;-86
2022/06/12 00:11:15;;;;;;;8.17;6.43;;;;;;;17.26;100.00;94459.47;4994947;28;20473;-86
2022/06/12 00:13:56;;;;;;;10.33;7.00;;;;;;;17.34;100.00;94472.09;4999857;28;20203;-87
2022/06/12 00:16:33;;;;;;;12.60;7.33;;;;;;;16.99;100.00;94415.13;5010026;28;20388;-87
2022/06/12 00:19:08;;;;;;;13.07;7.40;;;;;;;17.41;100.00;94470.78;4993095;28;20729;-86
2022/06/12 00:21:43;;;;;;;12.37;7.50;;;;;;;17.30;100.00;94450.03;4995377;28;20528;-87
2022/06/12 00:24:19;;;;;;;10.17;7.30;;;;;;;17.01;100.00;94424.31;5012558;28;20183;-87
2022/06/12 00:26:51;;;;;;;13.37;7.87;;;;;;;17.24;100.00;94462.38;5010070;28;20265;-86
2022/06/12 00:29:28;;;;;;;9.40;7.13;;;;;;;17.11;100.00;94446.38;4972439;28;20231;-86
2022/06/12 00:32:04;;;;;;;12.07;8.17;;;;;;;16.88;100.00;94413.56;4997067;28;20211;-86
2022/06/12 00:34:44;;;;;;;8.87;7.63;;;;;;;17.17;100.00;94448.72;4995072;28;20286;-86
2022/06/12 00:37:17;;;;;;;9.80;7.23;;;;;;;16.90;100.00;94403.56;4997321;28;20285;-87
2022/06/12 00:39:59;;;;;;;15.40;7.97;;;;;;;17.16;100.00;94449.78;4997776;28;21141;-86
2022/06/12 00:42:39;;;;;;;9.60;8.10;;;;;;;17.18;100.00;94454.75;4997783;28;20841;-85
2022/06/12 00:45:46;;;;;;;9.83;7.50;;;;;;;17.20;100.00;94458.69;4999773;28;20254;-86
2022/06/12 00:48:26;;;;;;;10.77;8.10;;;;;;;17.03;100.00;94448.44;5005484;28;21774;-87
2022/06/12 00:51:08;;;;;;;11.23;7.90;;;;;;;17.10;100.00;94468.41;5000945;28;20586;-87
2022/06/12 00:53:46;;;;;;;8.63;7.73;;;;;;;16.86;100.00;94434.00;4998746;28;20215;-86
2022/06/12 00:56:22;;;;;;;11.90;8.13;;;;;;;16.84;100.00;94441.34;4999917;28;20203;-87
2022/06/12 00:58:58;;;;;;;11.57;8.17;;;;;;;16.95;100.00;94467.38;4999241;28;20199;-87
2022/06/12 01:01:36;;;;;;;11.53;8.40;;;;;;;16.88;100.00;94463.44;5000667;28;20916;-87
2022/06/12 01:07:08;;;;;;;11.17;8.60;;;;;;;16.62;100.00;94440.81;5001206;28;20319;-87
2022/06/12 01:09:43;;;;;;;11.17;8.60;;;;;;;16.29;100.00;94394.81;4998950;28;20217;-86
2022/06/12 01:12:15;;;;;;;11.77;8.70;;;;;;;16.33;100.00;94415.00;5000356;28;20265;-87
2022/06/12 01:14:53;;;;;;;11.53;8.53;;;;;;;16.48;100.00;94457.00;5001657;28;20553;-88
2022/06/12 01:17:30;;;;;;;9.97;8.43;;;;;;;16.25;100.00;94423.38;5005425;28;20771;-87
2022/06/12 01:20:07;;;;;;;11.20;8.50;;;;;;;16.07;100.00;94395.03;5007921;28;20210;-87
2022/06/12 01:23:12;;;;;;;13.87;8.70;;;;;;;16.51;100.00;94444.44;5001670;28;20210;-87
2022/06/12 01:26:06;;;;;;;10.30;8.50;;;;;;;16.56;100.00;94445.28;5004142;28;20323;-88
2022/06/12 01:28:49;;;;;;;12.27;8.70;;;;;;;16.50;100.00;94416.63;4998549;28;20207;-87
2022/06/12 01:31:38;;;;;;;11.33;8.83;;;;;;;16.39;100.00;94392.97;5000002;28;20292;-88
2022/06/12 01:34:21;;;;;;;9.63;8.60;;;;;;;16.70;100.00;94425.34;5000565;28;20390;-87
2022/06/12 01:36:59;;;;;;;11.90;8.33;;;;;;;16.64;100.00;94413.25;5000370;28;20263;-86
2022/06/12 01:39:43;;;;;;;14.60;8.57;;;;;;;16.59;100.00;94396.72;5015402;28;20235;-86
2022/06/12 01:42:25;;;;;;;9.67;8.47;;;;;;;16.45;100.00;94399.81;5003363;28;20203;-86
2022/06/12 01:45:16;;;;;;;13.10;8.77;;;;;;;16.40;100.00;94391.16;4999851;28;20195;-86
2022/06/12 01:48:00;;;;;;;12.57;8.70;;;;;;;16.44;100.00;94403.50;5000492;28;20214;-87
2022/06/12 01:50:42;;;;;;;11.43;8.57;;;;;;;16.59;100.00;94431.63;4998418;28;20726;-87
2022/06/12 01:53:26;;;;;;;10.63;8.50;;;;;;;16.34;100.00;94374.63;4999630;28;20227;-86
2022/06/12 01:56:06;;;;;;;12.03;8.47;;;;;;;16.52;100.00;94406.66;5000577;28;20195;-87
2022/06/12 01:58:45;;;;;;;12.30;8.93;;;;;;;16.76;100.00;94437.44;5002407;28;20257;-87
2022/06/12 02:01:26;;;;;;;14.03;8.33;;;;;;;16.70;100.00;94435.84;5002856;28;20297;-86
2022/06/12 02:04:07;;;;;;;12.57;8.47;;;;;;;16.71;100.00;94434.78;5001188;28;20219;-87
2022/06/12 02:06:46;;;;;;;13.97;8.20;;;;;;;16.66;100.00;94421.66;4998515;28;20242;-86
2022/06/12 02:09:23;;;;;;;10.33;8.20;;;;;;;16.86;100.00;94450.53;4999200;28;20207;-87
2022/06/12 02:14:52;;;;;;;10.70;8.53;;;;;;;16.87;100.00;94436.38;4974374;28;20222;-86
2022/06/12 02:17:33;;;;;;;12.63;8.17;;;;;;;16.90;100.00;94427.19;5002261;28;20675;-86
2022/06/12 02:20:09;;;;;;;9.80;8.13;;;;;;;16.85;100.00;94411.44;5002755;28;20261;-87
2022/06/12 02:22:43;;;;;;;10.17;8.17;;;;;;;16.92;100.00;94425.88;4997344;28;20286;-86
2022/06/12 02:25:14;;;;;;;10.80;7.70;;;;;;;16.64;100.00;94381.78;4999880;28;20203;-87
2022/06/12 02:28:01;;;;;;;11.10;8.17;;;;;;;16.68;100.00;94395.94;4999077;28;20215;-87
2022/06/12 02:30:36;;;;;;;13.33;8.73;;;;;;;16.65;100.00;94383.31;4998954;28;20203;-88
2022/06/12 02:33:24;;;;;;;10.50;8.07;;;;;;;16.78;100.00;94405.66;5002342;28;20277;-87
2022/06/12 02:36:04;;;;;;;11.50;8.53;;;;;;;16.95;100.00;94437.69;5002019;28;20266;-87
2022/06/12 02:38:44;;;;;;;12.53;10.17;;;;;;;16.71;100.00;94418.28;4999454;28;20705;-87
2022/06/12 02:41:38;;;;;;;19.73;15.43;;;;;;;16.46;100.00;94390.91;4999791;28;20199;-87
2022/06/12 02:44:16;;;;;;;22.00;15.17;;;;;;;16.71;100.00;94418.28;4999580;28;20203;-87
2022/06/12 02:46:53;;;;;;;21.73;16.50;;;;;;;16.35;100.00;94373.59;4999060;28;20235;-87
2022/06/12 02:49:29;;;;;;;13.47;11.63;;;;;;;16.56;100.00;94411.16;4998109;28;20882;-86
2022/06/12 02:52:10;;;;;;;15.90;11.00;;;;;;;16.65;100.00;94443.69;5000601;28;20207;-87
2022/06/12 02:54:54;;;;;;;14.17;10.77;;;;;;;16.69;100.00;94450.00;4999544;28;20838;-88
2022/06/12 02:57:36;;;;;;;13.17;10.60;;;;;;;16.34;100.00;94400.06;4998355;28;20219;-87
2022/06/12 03:00:18;;;;;;;13.33;10.80;;;;;;;16.67;100.00;94453.94;5000734;28;20211;-88
2022/06/12 03:03:00;;;;;;;14.77;10.23;;;;;;;16.48;100.00;94416.88;5010221;28;20239;-87
2022/06/12 03:05:41;;;;;;;12.27;9.40;;;;;;;16.52;100.00;94406.66;4998276;28;20203;-88
2022/06/12 03:08:14;;;;;;;12.53;8.67;;;;;;;16.83;100.00;94445.81;5001350;28;20208;-88
2022/06/12 03:10:51;;;;;;;12.17;9.20;;;;;;;16.58;100.00;94411.69;5016892;28;20211;-87
2022/06/12 03:13:25;;;;;;;14.13;9.00;;;;;;;16.52;100.00;94406.66;5017333;28;20207;-87
2022/06/12 03:16:00;;;;;;;11.30;8.73;;;;;;;16.56;100.00;94436.59;5014670;28;20214;-87
2022/06/12 03:18:31;;;;;;;13.37;9.40;;;;;;;16.23;100.00;94385.34;5003994;28;20696;-87
2022/06/12 03:21:17;;;;;;;10.23;8.50;;;;;;;16.31;100.00;94393.50;5000891;28;20306;-87
2022/06/12 03:24:11;;;;;;;10.87;9.40;;;;;;;16.58;100.00;94442.38;5002907;28;20226;-87
2022/06/12 03:26:58;;;;;;;11.17;9.50;;;;;;;16.29;100.00;94408.72;5001320;28;20227;-88
2022/06/12 03:29:32;;;;;;;11.83;9.33;;;;;;;16.47;100.00;94436.28;4999158;28;20203;-88
2022/06/12 03:32:13;;;;;;;11.27;9.43;;;;;;;16.44;100.00;94421.06;4998659;28;20203;-88
2022/06/12 03:34:54;;;;;;;13.40;9.63;;;;;;;16.37;100.00;94415.28;4999856;28;20204;-88
2022/06/12 03:37:40;;;;;;;12.83;10.83;;;;;;;16.39;100.00;94415.81;5003917;28;20207;-88
2022/06/12 03:40:18;;;;;;;26.97;21.80;;;;;;;16.47;100.00;94425.81;4998006;28;20223;-88
2022/06/12 03:42:56;;;;;;;21.50;16.40;;;;;;;16.38;100.00;94411.63;5001996;28;20255;-88
2022/06/12 03:45:42;;;;;;;17.37;12.83;;;;;;;16.51;100.00;94437.34;4998077;28;20207;-87
2022/06/12 03:48:28;;;;;;;14.93;11.93;;;;;;;16.37;100.00;94407.41;4998685;28;20199;-87
2022/06/12 03:51:17;;;;;;;14.10;11.37;;;;;;;16.54;100.00;94410.63;4997040;28;20204;-86
2022/06/12 03:53:58;;;;;;;14.13;11.47;;;;;;;16.60;100.00;94420.06;4996756;28;20211;-87
2022/06/12 03:59:35;;;;;;;17.03;12.43;;;;;;;16.38;100.00;94386.19;4996257;28;20230;-86
2022/06/12 04:02:10;;;;;;;15.93;13.60;;;;;;;16.42;100.00;94395.09;4998042;28;20306;-86
2022/06/12 04:04:48;;;;;;;17.90;12.93;;;;;;;16.60;100.00;94417.44;4998963;28;20591;-86
2022/06/12 04:07:23;;;;;;;14.23;11.87;;;;;;;16.51;100.00;94415.59;4996391;28;20231;-86
2022/06/12 04:10:03;;;;;;;13.77;12.33;;;;;;;16.53;100.00;94401.16;4997476;28;20647;-86
2022/06/12 04:12:36;;;;;;;13.70;11.60;;;;;;;16.80;100.00;94440.28;4997754;28;20203;-87
2022/06/12 04:15:10;;;;;;;17.67;12.20;;;;;;;16.59;100.00;94405.41;5004682;28;20203;-87
2022/06/12 04:17:43;;;;;;;13.40;11.40;;;;;;;16.69;100.00;94415.88;5000281;28;20652;-87
2022/06/12 04:20:23;;;;;;;15.27;12.30;;;;;;;16.78;100.00;94439.78;4999607;28;20677;-87
2022/06/12 04:23:04;;;;;;;14.03;12.23;;;;;;;16.75;100.00;94432.41;5002241;28;20211;-87
2022/06/12 04:25:48;;;;;;;16.17;12.67;;;;;;;16.66;100.00;94411.16;5012844;28;20297;-87
2022/06/12 04:28:36;;;;;;;16.50;13.10;;;;;;;16.94;100.00;94447.41;5001039;28;20199;-86
2022/06/12 04:31:11;;;;;;;16.30;12.93;;;;;;;16.84;100.00;94428.22;5000701;28;20214;-87
2022/06/12 04:34:00;;;;;;;18.27;13.63;;;;;;;16.94;100.00;94442.16;5002446;28;20210;-87
2022/06/12 04:36:35;;;;;;;15.87;13.10;;;;;;;16.87;100.00;94436.38;5003433;28;20210;-86
2022/06/12 04:39:10;;;;;;;19.90;12.63;;;;;;;17.14;100.00;94482.59;5001392;28;20337;-86
2022/06/12 04:41:44;;;;;;;17.07;12.70;;;;;;;17.00;100.00;94459.47;5000333;28;20215;-86
2022/06/12 04:44:20;;;;;;;16.20;12.83;;;;;;;17.16;100.00;94478.66;5001091;28;20222;-86
2022/06/12 04:47:01;;;;;;;15.40;12.47;;;;;;;17.07;100.00;94466.31;5000850;28;20245;-86
2022/06/12 04:49:35;;;;;;;17.50;12.90;;;;;;;17.02;100.00;94457.41;5000897;28;20539;-86
2022/06/12 04:52:10;;;;;;;14.07;11.80;;;;;;;17.22;100.00;94476.81;5003262;28;20215;-87
2022/06/12 04:54:49;;;;;;;15.73;12.53;;;;;;;17.12;100.00;94466.31;5000335;28;20199;-86
2022/06/12 04:57:24;;;;;;;16.87;12.53;;;;;;;17.28;100.00;94483.66;4999878;28;20211;-87
2022/06/12 05:00:01;;;;;;;14.47;11.40;;;;;;;17.25;100.00;94477.09;5002079;28;20215;-86
2022/06/12 05:02:31;;;;;;;14.77;12.20;;;;;;;17.20;100.00;94466.56;4999730;28;20230;-88
2022/06/12 05:05:07;;;;;;;18.83;12.50;;;;;;;17.16;100.00;94460.28;5004597;28;20742;-87
2022/06/12 05:07:42;;;;;;;14.77;12.03;;;;;;;17.39;100.00;94488.66;5000872;28;20238;-88
2022/06/12 05:10:18;;;;;;;14.47;12.27;;;;;;;17.36;100.00;94483.91;5003124;28;20217;-88
2022/06/12 05:12:52;;;;;;;14.77;11.50;;;;;;;17.39;100.00;94491.28;5004368;28;20207;-87
2022/06/12 05:15:21;;;;;;;14.97;11.70;;;;;;;17.40;100.00;94489.44;5009019;28;20222;-87
2022/06/12 05:17:53;;;;;;;12.80;11.30;;;;;;;17.28;100.00;94463.44;5005934;28;20298;-87
2022/06/12 05:20:28;;;;;;;14.17;10.50;;;;;;;17.27;100.00;94442.66;5000920;28;20310;-87
2022/06/12 05:23:01;;;;;;;13.63;11.17;;;;;;;17.34;100.00;94437.94;5000976;28;20657;-87
2022/06/12 05:25:33;;;;;;;14.63;12.07;;;;;;;17.26;100.00;94428.75;5000754;28;20274;-88
2022/06/12 05:28:16;;;;;;;13.30;10.73;;;;;;;17.57;100.00;94479.47;5001956;28;20227;-87
2022/06/12 05:30:49;;;;;;;14.60;10.93;;;;;;;17.40;100.00;94440.28;5004938;28;20223;-88
2022/06/12 05:33:19;;;;;;;14.60;12.20;;;;;;;17.65;100.00;94492.06;5004085;28;20301;-89
2022/06/12 05:35:51;;;;;;;13.37;10.90;;;;;;;17.73;100.00;94493.34;5000987;28;20822;-87
2022/06/12 05:38:25;;;;;;;13.30;10.97;;;;;;;17.35;100.00;94431.63;5002267;28;20255;-85
2022/06/12 05:40:54;;;;;;;15.73;12.37;;;;;;;17.48;100.00;94463.41;5006220;28;20197;-88
2022/06/12 05:43:35;;;;;;;13.37;11.17;;;;;;;17.78;100.00;94501.22;5001935;28;20207;-87
2022/06/12 05:46:10;;;;;;;14.43;11.07;;;;;;;17.43;100.00;94431.09;5009750;28;20199;-87
2022/06/12 05:48:52;;;;;;;13.87;11.03;;;;;;;17.76;100.00;94475.22;5014363;28;21153;-90
2022/06/12 05:52:12;;;;;;;13.27;11.10;;;;;;;18.04;100.00;94505.38;5001433;28;20226;-91
2022/06/12 05:54:45;;;;;;;11.57;10.20;;;;;;;18.09;100.00;94502.75;5003028;28;20215;-88
2022/06/12 05:57:17;;;;;;;13.63;10.50;;;;;;;17.83;100.00;94462.59;5018248;28;20195;-88
2022/06/12 05:59:53;;;;;;;12.43;10.73;;;;;;;17.62;100.00;94461.06;5021892;28;20234;-87
2022/06/12 06:02:24;;;;;;;12.50;10.23;;;;;;;17.84;100.00;94505.41;5013547;28;21376;-88
2022/06/12 06:04:57;;;;;;;18.77;12.73;;;;;;;17.86;100.00;94503.34;5004854;28;20211;-88
2022/06/12 06:07:26;;;;;;;12.40;11.10;;;;;;;17.88;100.00;94501.22;5002916;28;20223;-89
2022/06/12 06:09:56;;;;;;;13.43;11.20;;;;;;;17.64;100.00;94485.22;5005451;28;20211;-89
2022/06/12 06:12:26;;;;;;;14.73;11.07;;;;;;;17.74;100.00;94487.84;5003057;28;20235;-89
2022/06/12 06:14:56;;;;;;;12.80;11.20;;;;;;;17.55;100.00;94455.28;5003876;28;20286;-87
2022/06/12 06:17:32;;;;;;;13.63;10.53;;;;;;;17.64;100.00;94469.44;5005380;28;20199;-88
2022/06/12 06:20:02;;;;;;;11.90;10.57;;;;;;;17.76;100.00;94480.47;5004510;28;20919;-88
2022/06/12 06:22:46;;;;;;;12.23;10.20;;;;;;;17.65;100.00;94460.53;5003634;28;20221;-90
2022/06/12 06:25:17;;;;;;;14.60;10.63;;;;;;;17.82;100.00;94489.13;5000009;28;20203;-90
2022/06/12 06:27:51;;;;;;;13.53;10.80;;;;;;;17.93;100.00;94517.78;5002926;28;20231;-90
2022/06/12 06:30:33;;;;;;;12.43;11.03;;;;;;;17.89;100.00;94516.72;5001981;28;20291;-88
2022/06/12 06:33:59;;;;;;;14.63;10.73;;;;;;;17.86;100.00;94527.00;5001697;28;20262;-92
2022/06/12 06:36:43;;;;;;;12.73;11.33;;;;;;;17.90;100.00;94547.22;5004613;28;20203;-90
2022/06/12 06:39:59;;;;;;;16.17;11.80;;;;;;;18.00;100.00;94547.22;5005523;28;20230;-92
2022/06/12 06:51:56;;;;;;;14.93;11.53;;;;;;;17.82;100.00;94510.16;4992048;28;20207;-77
2022/06/12 06:54:31;;;;;;;14.93;11.00;;;;;;;18.14;100.00;94548.25;4997064;28;20191;-81
2022/06/12 06:57:02;;;;;;;13.80;10.50;;;;;;;18.11;100.00;94556.66;4999760;28;20637;-77
2022/06/12 06:59:35;;;;;;;13.10;10.50;;;;;;;18.06;100.00;94546.16;4997849;28;20374;-77
2022/06/12 07:02:08;;;;;;;13.80;10.77;;;;;;;18.18;100.00;94548.50;5001058;28;20195;-77
2022/06/12 07:04:43;;;;;;;11.60;10.40;;;;;;;18.22;100.00;94552.16;4998756;28;20285;-81
2022/06/12 07:07:17;;;;;;;12.77;10.27;;;;;;;18.28;100.00;94548.47;5000408;28;20232;-73
2022/06/12 07:09:47;;;;;;;12.33;9.90;;;;;;;18.47;100.00;94552.06;4998884;28;20211;-73
2022/06/12 07:12:20;;;;;;;11.37;9.27;;;;;;;18.63;100.00;94551.00;4997890;28;20590;-74
2022/06/12 07:14:54;;;;;;;11.30;10.07;;;;;;;18.69;100.00;94552.56;5001398;28;20222;-73
2022/06/12 07:17:22;;;;;;;13.00;10.40;;;;;;;18.74;100.00;94556.19;4988218;28;20203;-73
2022/06/12 07:19:59;;;;;;;11.40;10.13;;;;;;;18.83;100.00;94554.59;4983072;28;20328;-73
2022/06/12 07:22:37;;;;;;;11.80;9.60;;;;;;;18.98;100.00;94559.78;4996880;28;20207;-74
2022/06/12 07:25:14;;;;;;;11.38;10.18;;;;;;;18.95;100.00;94561.13;4996368;28;20227;-74
2022/06/12 07:27:48;;;;;;;14.45;10.82;;;;;;;19.08;100.00;94560.50;4999859;28;20660;-73
2022/06/12 07:30:26;;;;;;;10.57;9.40;;;;;;;19.08;100.00;94560.50;4999481;28;20704;-73
2022/06/12 07:32:59;;;;;;;11.10;9.93;;;;;;;19.11;100.00;94561.78;4996837;28;20204;-75
2022/06/12 07:35:28;;;;;;;12.93;10.30;;;;;;;19.07;100.00;94563.41;4997134;28;20292;-75
2022/06/12 07:38:11;;;;;;;10.43;9.33;;;;;;;19.04;100.00;94570.03;4995556;28;20203;-73
2022/06/12 07:40:45;;;;;;;13.53;10.40;;;;;;;19.15;100.00;94571.53;4998403;28;20207;-74
2022/06/12 07:43:18;;;;;;;12.47;10.20;;;;;;;19.25;100.00;94575.94;5000781;28;20195;-75
2022/06/12 07:45:58;;;;;;;10.85;9.45;;;;;;;19.36;100.00;94574.84;4998059;28;20219;-74
2022/06/12 07:48:35;;;;;;;11.23;9.93;;;;;;;19.32;100.00;94557.19;5010666;28;20261;-74
2022/06/12 07:51:12;;;;;;;12.35;10.20;;;;;;;19.44;100.00;94582.19;5011561;28;20209;-73
2022/06/12 07:53:50;;;;;;;12.57;10.13;;;;;;;19.51;100.00;94574.72;5011416;28;20932;-73
2022/06/12 07:56:27;;;;;;;14.40;9.30;;;;;;;19.57;100.00;94575.47;5015677;28;20215;-73
2022/06/12 07:59:00;;;;;;;11.48;9.40;;;;;;;19.60;100.00;94578.34;5018953;28;20265;-73
2022/06/12 08:01:36;;;;;;;14.40;8.75;;;;;;;19.60;100.00;94580.22;5017653;28;20217;-73
2022/06/12 08:04:10;;;;;;;9.93;8.35;;;;;;;19.59;100.00;94581.28;5019385;28;20296;-73
2022/06/12 08:06:43;;;;;;;13.77;9.88;;;;;;;19.67;100.00;94583.31;5017615;28;20215;-75
2022/06/12 08:09:16;;;;;;;13.88;10.10;;;;;;;19.67;100.00;94572.78;5017713;28;20237;-73
2022/06/12 08:11:54;;;;;;;21.67;10.63;;;;;;;19.69;100.00;94582.00;5022585;28;20206;-74
2022/06/12 08:14:27;;;;;;;11.68;9.35;;;;;;;19.72;100.00;94578.81;5018393;28;20220;-75
2022/06/12 08:16:59;;;;;;;12.77;9.70;;;;;;;19.74;100.00;94576.66;5016381;28;20705;-74
2022/06/12 08:22:25;;;;;;;11.13;9.93;;;;;;;19.85;100.00;94584.50;5019241;28;20346;-76
2022/06/12 08:24:59;;;;;;;11.50;9.82;;;;;;;19.88;100.00;94583.97;5019352;28;20680;-76
2022/06/12 08:27:32;;;;;;;13.20;9.80;;;;;;;19.91;100.00;94576.28;5019964;28;20234;-76
2022/06/12 08:30:06;;;;;;;15.68;10.25;;;;;;;19.98;100.00;94582.00;5018052;28;20207;-76
2022/06/12 08:32:44;;;;;;;14.90;9.23;;;;;;;19.95;100.00;94579.91;5015971;28;20232;-76
2022/06/12 08:35:25;;;;;;;11.88;9.88;;;;;;;19.98;100.00;94587.28;5019038;28;20588;-77
2022/06/12 08:38:00;;;;;;;13.98;10.38;;;;;;;20.01;100.00;94585.94;5017589;28;20203;-78
2022/06/12 08:40:45;;;;;;;16.70;10.23;;;;;;;20.07;100.00;94588.25;5018887;28;20669;-75
2022/06/12 08:43:31;;;;;;;14.48;11.25;;;;;;;20.15;100.00;94582.38;5018623;28;20413;-74
2022/06/12 08:46:08;;;;;;;13.10;11.68;;;;;;;20.25;100.00;94592.88;5016795;28;20210;-74
2022/06/12 08:48:49;;;;;;;14.07;11.50;;;;;;;20.30;100.00;94592.03;5018840;28;20244;-75
2022/06/12 08:51:30;;;;;;;12.60;9.60;;;;;;;20.35;100.00;94600.69;5020700;28;20199;-74
2022/06/12 08:54:06;;;;;;;10.40;9.30;;;;;;;20.43;100.00;94599.28;5021722;28;20229;-73
2022/06/12 08:56:50;;;;;;;11.77;9.43;;;;;;;20.49;100.00;94600.03;5022285;28;20666;-74
2022/06/12 08:59:28;;;;;;;12.40;10.35;;;;;;;20.55;100.00;94601.56;5023584;28;20715;-73
2022/06/12 09:02:06;;;;;;;13.15;10.05;;;;;;;20.59;100.00;94599.91;5019235;28;20206;-73
2022/06/12 09:04:43;;;;;;;12.70;10.02;;;;;;;20.56;100.00;94601.25;5018810;28;20422;-73
2022/06/12 09:07:23;;;;;;;13.18;9.73;;;;;;;20.49;100.00;94600.78;5019900;28;20220;-76
2022/06/12 09:09:57;;;;;;;12.18;9.45;;;;;;;20.55;100.00;94601.56;5020811;28;20214;-76
2022/06/12 09:12:43;;;;;;;18.13;9.32;;;;;;;20.55;100.00;94597.03;5020138;28;20202;-76
2022/06/12 09:15:30;;;;;;;13.63;10.15;;;;;;;20.57;100.00;94607.31;5022487;28;20218;-76
2022/06/12 09:18:09;;;;;;;12.40;9.32;;;;;;;20.50;100.00;94602.38;5022043;28;20199;-75
2022/06/12 09:20:48;;;;;;;16.55;9.15;;;;;;;20.52;100.00;94599.47;5020770;28;20210;-80
2022/06/12 09:23:37;;;;;;;11.50;9.45;;;;;;;20.59;100.00;94603.34;5020052;28;20210;-76
2022/06/12 09:26:22;;;;;;;12.55;9.10;;;;;;;20.67;100.00;94604.56;5020451;28;20207;-73
2022/06/12 09:29:09;;;;;;;9.20;8.15;;;;;;;20.69;100.00;94605.84;5017493;28;20676;-73
2022/06/12 09:31:46;;;;;;;13.30;9.40;;;;;;;20.75;100.00;94611.88;5018177;28;20202;-77
2022/06/12 09:34:29;;;;;;;14.13;9.38;;;;;;;20.76;100.00;94608.94;5021316;28;20740;-75
2022/06/12 09:40:12;;;;;;;15.60;9.95;;;;;;;20.84;100.00;94610.16;5023044;28;20233;-77
2022/06/12 09:42:58;;;;;;;13.60;10.63;;;;;;;20.85;100.00;94614.41;5017917;28;20206;-78
2022/06/12 09:45:41;;;;;;;19.33;10.55;;;;;;;20.82;100.00;94618.38;5016076;28;20199;-75
2022/06/12 09:48:25;;;;;;;11.20;9.57;;;;;;;20.76;100.00;94613.44;5017147;28;20238;-77
2022/06/12 09:51:10;;;;;;;12.80;9.18;;;;;;;20.68;100.00;94606.94;5015520;28;20191;-79
2022/06/12 09:54:05;;;;;;;12.32;10.02;;;;;;;20.62;100.00;94602.78;5016728;28;20669;-77
2022/06/12 09:56:45;;;;;;;13.35;9.35;;;;;;;20.61;100.00;94606.47;5016747;28;20209;-75
2022/06/12 09:59:23;;;;;;;11.88;8.70;;;;;;;20.52;100.00;94607.38;5018007;28;20194;-76
2022/06/12 10:02:00;;;;;;;9.70;8.70;;;;;;;20.52;100.00;94600.22;5015477;28;20790;-74
2022/06/12 10:04:37;;;;;;;12.60;9.40;;;;;;;20.53;100.00;94601.03;5015387;28;20300;-75
2022/06/12 10:07:12;;;;;;;11.13;8.88;;;;;;;20.50;100.00;94601.59;5013944;28;20313;-76
2022/06/12 10:09:49;;;;;;;12.27;9.00;;;;;;;20.50;100.00;94594.44;5015282;28;21203;-76
2022/06/12 10:12:24;;;;;;;12.82;9.48;;;;;;;20.46;100.00;94595.31;5017564;28;20195;-75
2022/06/12 10:14:57;;;;;;;13.77;8.80;;;;;;;20.34;100.00;94591.19;5016855;28;20672;-75
2022/06/12 10:17:36;;;;;;;12.45;9.00;;;;;;;20.21;100.00;94578.63;5013366;28;20282;-75
2022/06/12 10:20:09;;;;;;;10.02;8.90;;;;;;;20.20;100.00;94592.88;5012957;28;20648;-77
2022/06/12 10:25:38;;;;;;;11.18;8.95;;;;;;;19.93;100.00;94595.25;5000594;28;20351;-76
2022/06/12 10:28:28;;;;;;;10.85;8.85;;;;;;;19.93;100.00;94589.19;5019126;28;20232;-76
2022/06/12 10:31:10;;;;;;;9.88;8.65;;;;;;;19.91;100.00;94600.03;5005186;28;20207;-76
2022/06/12 10:34:00;;;;;;;11.80;8.95;;;;;;;19.89;100.00;94596.84;5014681;28;20320;-76
2022/06/12 10:36:33;;;;;;;13.00;8.52;;;;;;;20.00;100.00;94589.66;5013297;28;20294;-74
2022/06/12 10:39:17;;;;;;;12.88;8.35;;;;;;;20.04;100.00;94590.66;5013770;28;20211;-75
2022/06/12 10:41:57;;;;;;;10.15;8.32;;;;;;;20.07;100.00;94592.75;5012384;28;20217;-74
2022/06/12 10:44:49;;;;;;;10.88;7.35;;;;;;;20.14;100.00;94590.59;5015024;28;20214;-71
2022/06/12 10:47:27;;;;;;;9.00;7.50;;;;;;;20.25;100.00;94595.50;5016470;28;20324;-76
2022/06/12 10:50:30;;;;;;;9.60;7.28;;;;;;;20.40;100.00;94591.13;5020372;28;20229;-77
2022/06/12 10:53:10;;;;;;;8.60;6.80;;;;;;;20.59;100.00;94598.06;5007763;28;20212;-78
2022/06/12 10:55:55;;;;;;;8.93;6.88;;;;;;;20.74;100.00;94587.31;5017734;28;20209;-78
2022/06/12 10:59:01;;;;;;;8.40;7.50;;;;;;;20.89;100.00;94591.63;5015463;28;20206;-78
2022/06/12 11:01:42;;;;;;;11.13;7.13;;;;;;;21.09;100.00;94591.41;5015156;28;20198;-78
2022/06/12 11:04:27;;;;;;;12.07;7.32;;;;;;;21.45;100.00;94589.03;5017425;28;20205;-78
2022/06/12 11:07:21;;;;;;;9.88;6.78;;;;;;;21.89;100.00;94588.66;5016948;28;20217;-78
2022/06/12 11:10:10;;;;;;;7.97;6.93;;;;;;;22.29;100.00;94587.97;5017688;28;20222;-77
2022/06/12 11:13:06;;;;;;;8.00;6.40;;;;;;;22.64;100.00;94589.19;5025108;28;20752;-78
2022/06/12 11:16:00;;;;;;;8.18;6.80;;;;;;;22.92;100.00;94584.66;5020079;28;20218;-79
2022/06/12 11:18:50;;;;;;;7.40;6.30;;;;;;;23.31;100.00;94592.84;5019134;28;20214;-77
2022/06/12 11:21:38;;;;;;;12.55;6.20;;;;;;;23.69;100.00;94599.44;5017120;28;20213;-77
2022/06/12 11:24:21;;;;;;;10.70;7.35;;;;;;;24.02;100.00;94596.53;5020741;28;20210;-74
2022/06/12 11:27:20;;;;;;;10.73;6.47;;;;;;;24.13;98.55;94600.53;5018084;28;20298;-76
2022/06/12 11:30:10;;;;;;;11.00;6.32;;;;;;;24.14;94.48;94596.81;5018282;28;20396;-75
2022/06/12 11:32:57;;;;;;;8.27;5.90;;;;;;;24.16;96.22;94598.06;5016093;28;20219;-75
2022/06/12 11:35:47;;;;;;;7.78;5.68;;;;;;;24.14;94.81;94594.94;5016164;28;20209;-75
2022/06/12 11:38:45;;;;;;;8.80;6.25;;;;;;;23.85;100.00;94583.94;5018846;28;20206;-74
2022/06/12 11:41:27;;;;;;;10.30;6.03;;;;;;;23.78;100.00;94594.19;5018970;28;20203;-75
2022/06/12 11:44:09;;;;;;;6.05;5.45;;;;;;;23.69;98.51;94588.06;5018490;28;20260;-75
2022/06/12 11:46:48;;;;;;;10.43;5.75;;;;;;;23.77;100.00;94591.84;5016631;28;20238;-76
2022/06/12 11:49:33;;;;;;;7.13;5.40;;;;;;;23.87;100.00;94576.44;5012921;28;20226;-76
2022/06/12 11:52:14;;;;;;;7.90;5.40;;;;;;;23.77;98.19;94578.56;5014101;28;20199;-76
2022/06/12 11:55:20;;;;;;;13.98;5.57;;;;;;;23.81;99.87;94580.31;5016253;28;20202;-77
2022/06/12 11:58:05;;;;;;;6.25;5.32;;;;;;;23.82;100.00;94583.75;5002874;28;20293;-76
2022/06/12 12:00:42;;;;;;;6.40;5.13;;;;;;;23.68;100.00;94583.81;5012630;28;20708;-77
2022/06/12 12:03:43;;;;;;;10.48;5.90;;;;;;;23.72;100.00;94579.50;5017859;28;20202;-76
2022/06/12 12:06:28;;;;;;;8.77;5.45;;;;;;;23.64;100.00;94577.53;5017307;28;20203;-78
2022/06/12 12:09:17;;;;;;;6.05;5.45;;;;;;;23.51;100.00;94573.88;5014812;28;20210;-77
2022/06/12 12:11:54;;;;;;;5.75;5.10;;;;;;;23.40;100.00;94577.84;5014879;28;20585;-80
2022/06/12 12:14:32;;;;;;;8.20;5.57;;;;;;;23.25;100.00;94572.03;5014768;28;20195;-79
2022/06/12 12:17:08;;;;;;;5.80;5.05;;;;;;;23.16;100.00;94569.31;5014582;28;20612;-77
2022/06/12 12:19:45;;;;;;;7.97;5.50;;;;;;;22.98;98.84;94568.34;5012928;28;20722;-76
2022/06/12 12:22:21;;;;;;;6.28;5.32;;;;;;;22.79;99.91;94561.63;5017578;28;20213;-77
2022/06/12 12:25:00;;;;;;;8.23;5.40;;;;;;;22.71;100.00;94563.09;5014645;28;20545;-77
2022/06/12 12:27:35;;;;;;;6.50;5.80;;;;;;;22.88;100.00;94557.97;5012169;28;20217;-76
2022/06/12 12:30:18;;;;;;;8.35;5.88;;;;;;;23.09;100.00;94558.31;5012899;28;20717;-77
2022/06/12 12:32:56;;;;;;;9.60;6.35;;;;;;;23.20;100.00;94550.94;5013272;28;20199;-77
2022/06/12 12:41:15;;;;;;;7.38;6.28;;;;;;;23.03;100.00;94548.94;5014800;28;20242;-77
2022/06/12 12:43:57;;;;;;;8.15;6.32;;;;;;;22.95;100.00;94537.13;5017859;28;20202;-76
2022/06/12 12:46:47;;;;;;;7.93;6.80;;;;;;;22.93;100.00;94546.47;5015181;28;20190;-76
2022/06/12 12:49:25;;;;;;;8.75;6.97;;;;;;;22.92;100.00;94553.63;5018675;28;20221;-76